Time;durP1;ratioP1;P1;durP2;ratioP2;P2;SDS_P1;SDS_P2;PMS_P1;PMS_P2;Temp;Humidity;BMP_temperature;BMP_pressure;BME280_temperature;BME280_humidity;BME280_pressure;Samples;Min_cycle;Max_cycle;Signal;HPM_P1;HPM_P2
2023/01/08 00:02:33;;;;;;;1.10;1.10;;;;;;;24.24;38.72;98892.52;1875690;76;28265;-48
2023/01/08 00:05:21;;;;;;;1.22;1.20;;;;;;;24.21;38.64;98891.66;1862065;76;28175;-43
2023/01/08 00:08:11;;;;;;;1.27;1.17;;;;;;;24.25;38.67;98878.25;1877824;76;28137;-44
2023/01/08 00:11:00;;;;;;;1.00;1.00;;;;;;;24.26;38.66;98884.01;1877213;76;28132;-45
2023/01/08 00:13:48;;;;;;;1.30;1.20;;;;;;;24.24;38.63;98898.00;1878215;76;28097;-44
2023/01/08 00:16:37;;;;;;;2.20;1.30;;;;;;;24.24;38.62;98885.66;1849228;76;28293;-45
2023/01/08 00:19:25;;;;;;;1.12;1.10;;;;;;;24.26;38.59;98889.50;1855904;74;28171;-45
2023/01/08 00:22:14;;;;;;;1.32;1.22;;;;;;;24.25;38.60;98868.08;1859308;76;28254;-45
2023/01/08 00:25:02;;;;;;;1.10;1.10;;;;;;;24.25;38.58;98877.69;1856875;74;28103;-44
2023/01/08 00:27:50;;;;;;;1.20;1.10;;;;;;;24.25;38.61;98845.31;1876353;76;28585;-47
2023/01/08 00:30:39;;;;;;;1.12;1.02;;;;;;;24.20;38.63;98854.30;1897577;74;28078;-44
2023/01/08 00:33:27;;;;;;;2.33;1.30;;;;;;;24.15;38.76;98837.81;1864287;76;28141;-47
2023/01/08 00:36:18;;;;;;;1.10;1.10;;;;;;;24.18;38.67;98836.47;1869202;74;28295;-45
2023/01/08 00:39:06;;;;;;;1.40;1.30;;;;;;;24.18;38.62;98827.67;1859045;75;28205;-46
2023/01/08 00:41:55;;;;;;;1.22;1.10;;;;;;;23.97;38.91;98812.91;1862261;75;28272;-44
2023/01/08 00:44:43;;;;;;;1.07;1.07;;;;;;;23.78;39.26;98819.84;1867550;76;28216;-47
2023/01/08 00:47:31;;;;;;;0.90;0.90;;;;;;;23.64;39.59;98811.73;1862975;76;28098;-45
2023/01/08 00:50:20;;;;;;;1.37;1.10;;;;;;;23.58;39.78;98805.93;1871967;74;28191;-48
2023/01/08 00:53:08;;;;;;;1.40;1.30;;;;;;;23.50;39.96;98807.74;1876244;76;28073;-48
2023/01/08 00:56:06;;;;;;;1.25;1.20;;;;;;;23.42;40.12;98783.55;1877031;76;28158;-44
2023/01/08 00:58:55;;;;;;;1.15;1.00;;;;;;;23.40;40.22;98781.61;1867799;76;28130;-47
2023/01/08 01:01:43;;;;;;;1.20;1.10;;;;;;;23.36;40.33;98768.95;1874450;76;28691;-50
2023/01/08 01:04:32;;;;;;;3.12;1.15;;;;;;;23.35;40.38;98760.99;1868201;74;32258;-47
2023/01/08 01:07:20;;;;;;;1.70;1.32;;;;;;;23.33;40.41;98753.00;1857841;76;28317;-46
2023/01/08 01:10:11;;;;;;;1.15;1.05;;;;;;;23.32;40.44;98748.59;1879762;75;28079;-43
2023/01/08 01:12:59;;;;;;;1.00;1.00;;;;;;;23.33;40.49;98745.32;1880934;75;28101;-45
2023/01/08 01:16:01;;;;;;;1.40;1.07;;;;;;;23.29;40.53;98763.38;1868776;76;28281;-44
2023/01/08 01:18:51;;;;;;;1.22;1.12;;;;;;;23.34;40.53;98778.47;1862060;76;28183;-45
2023/01/08 01:21:40;;;;;;;2.37;1.20;;;;;;;23.29;40.64;98768.28;1860091;76;28202;-46
2023/01/08 01:24:28;;;;;;;1.07;1.00;;;;;;;23.30;40.66;98768.58;1872120;76;28323;-44
2023/01/08 01:27:17;;;;;;;1.00;1.00;;;;;;;23.32;40.65;98762.84;1870967;76;28716;-46
2023/01/08 01:30:06;;;;;;;0.95;0.95;;;;;;;23.32;40.65;98754.61;1875193;74;28086;-45
2023/01/08 01:32:55;;;;;;;1.35;1.00;;;;;;;23.31;40.66;98735.97;1867122;76;28282;-46
2023/01/08 01:35:44;;;;;;;1.12;1.07;;;;;;;23.34;40.65;98731.88;1864654;75;28204;-47
2023/01/08 01:38:32;;;;;;;1.00;1.00;;;;;;;23.37;40.65;98736.89;1887172;75;28153;-48
2023/01/08 01:41:42;;;;;;;1.75;1.10;;;;;;;23.36;40.67;98733.31;1866741;76;28147;-46
2023/01/08 01:44:36;;;;;;;1.70;0.98;;;;;;;23.36;40.66;98727.84;1870444;76;28173;-44
2023/01/08 01:47:39;;;;;;;1.10;1.10;;;;;;;23.34;40.67;98727.27;1846448;77;28327;-47
2023/01/08 01:50:37;;;;;;;1.00;1.00;;;;;;;23.36;40.73;98730.58;1858465;76;28223;-46
2023/01/08 01:53:28;;;;;;;1.17;1.00;;;;;;;23.35;40.74;98712.50;1878256;76;28137;-45
2023/01/08 01:56:17;;;;;;;1.20;1.10;;;;;;;23.38;40.71;98722.12;1886252;74;28134;-44
2023/01/08 01:59:06;;;;;;;1.20;1.10;;;;;;;23.38;40.73;98723.48;1861033;74;28289;-46
2023/01/08 02:01:56;;;;;;;0.82;0.82;;;;;;;23.38;40.74;98706.20;1860335;75;28097;-43
2023/01/08 02:04:44;;;;;;;1.55;1.05;;;;;;;23.41;40.73;98698.28;1880367;74;28168;-47
2023/01/08 02:07:57;;;;;;;0.80;0.80;;;;;;;23.43;40.68;98700.25;1870042;75;28206;-46
2023/01/08 02:11:00;;;;;;;1.00;1.00;;;;;;;23.47;40.66;98706.02;1830073;77;28144;-49
2023/01/08 02:13:52;;;;;;;1.55;0.80;;;;;;;23.44;40.70;98689.55;1842545;77;28354;-46
2023/01/08 02:16:56;;;;;;;1.00;1.00;;;;;;;23.43;40.75;98702.16;1842284;77;28289;-50
2023/01/08 02:19:53;;;;;;;1.07;0.97;;;;;;;23.45;40.77;98701.34;1804840;78;28252;-47
2023/01/08 02:23:00;;;;;;;1.55;1.20;;;;;;;23.45;40.80;98692.59;1813562;78;28250;-44
2023/01/08 02:26:17;;;;;;;0.90;0.90;;;;;;;23.45;40.78;98692.59;1817281;78;28345;-48
2023/01/08 02:29:12;;;;;;;1.70;1.00;;;;;;;23.46;40.80;98685.16;1827913;78;28262;-50
2023/01/08 02:32:01;;;;;;;1.10;0.70;;;;;;;23.45;40.84;98687.64;1884183;75;28118;-47
2023/01/08 02:34:50;;;;;;;1.72;1.10;;;;;;;23.48;40.85;98691.25;1827455;77;28168;-47
2023/01/08 02:37:40;;;;;;;1.05;0.90;;;;;;;23.51;40.79;98675.63;1809327;78;28343;-45
2023/01/08 02:40:31;;;;;;;0.80;0.80;;;;;;;23.54;40.80;98671.00;1824718;77;28314;-45
2023/01/08 02:43:22;;;;;;;0.78;0.78;;;;;;;23.60;40.68;98682.28;1814424;78;28236;-45
2023/01/08 02:46:13;;;;;;;1.07;0.90;;;;;;;23.61;40.69;98682.58;1809002;78;28329;-46
2023/01/08 02:49:08;;;;;;;0.93;0.93;;;;;;;23.62;40.67;98682.87;1809489;78;28328;-47
2023/01/08 02:51:59;;;;;;;1.60;1.00;;;;;;;23.63;40.67;98681.77;1850369;77;28140;-45
2023/01/08 02:54:49;;;;;;;0.90;0.90;;;;;;;23.63;40.70;98684.52;1844838;77;28163;-44
2023/01/08 02:57:39;;;;;;;1.27;1.00;;;;;;;23.67;40.66;98682.89;1858155;76;28789;-46
2023/01/08 03:00:29;;;;;;;0.90;0.90;;;;;;;23.66;40.69;98678.52;1865083;75;28201;-45
2023/01/08 03:03:26;;;;;;;1.65;0.93;;;;;;;23.69;40.66;98679.34;1868392;76;28205;-48
2023/01/08 03:06:18;;;;;;;1.00;0.90;;;;;;;23.69;40.67;98673.86;1867895;74;28072;-47
2023/01/08 03:09:07;;;;;;;0.90;0.90;;;;;;;23.70;40.65;98679.64;1868118;76;28192;-46
2023/01/08 03:12:04;;;;;;;1.85;1.17;;;;;;;23.70;40.65;98676.90;1841023;77;28116;-44
2023/01/08 03:14:55;;;;;;;1.27;1.00;;;;;;;23.74;40.62;98670.62;1877931;74;28212;-46
2023/01/08 03:17:46;;;;;;;1.00;1.00;;;;;;;23.75;40.61;98665.98;1853897;76;28147;-45
2023/01/08 03:20:38;;;;;;;0.90;0.90;;;;;;;23.73;40.61;98655.82;1863057;75;28561;-44
2023/01/08 03:23:28;;;;;;;1.90;0.88;;;;;;;23.75;40.58;98646.25;1856919;77;28255;-46
2023/01/08 03:26:20;;;;;;;1.03;1.00;;;;;;;23.79;40.55;98652.84;1856754;77;28151;-45
2023/01/08 03:29:11;;;;;;;1.90;1.00;;;;;;;23.81;40.53;98656.69;1850034;75;28283;-45
2023/01/08 03:32:02;;;;;;;3.33;1.10;;;;;;;23.83;40.54;98658.62;1841844;77;28179;-49
2023/01/08 03:34:53;;;;;;;0.93;0.93;;;;;;;23.83;40.50;98644.91;1864746;74;28177;-44
2023/01/08 03:37:44;;;;;;;0.95;0.95;;;;;;;23.85;40.45;98646.88;1852069;77;28156;-45
2023/01/08 03:40:41;;;;;;;1.15;0.93;;;;;;;23.85;40.48;98642.19;1854941;75;28188;-45
2023/01/08 03:43:30;;;;;;;2.13;1.07;;;;;;;23.86;40.45;98630.14;1848672;76;28080;-46
2023/01/08 03:46:24;;;;;;;1.90;0.90;;;;;;;23.90;40.41;98634.53;1873541;74;28095;-45
2023/01/08 03:49:15;;;;;;;0.90;0.90;;;;;;;23.92;40.39;98619.47;1866821;76;28107;-48
2023/01/08 03:52:03;;;;;;;1.85;1.07;;;;;;;23.93;40.34;98617.02;1868619;76;28115;-48
2023/01/08 03:54:52;;;;;;;3.02;1.10;;;;;;;23.95;40.36;98621.69;1855218;74;28095;-47
2023/01/08 03:57:40;;;;;;;0.90;0.90;;;;;;;23.99;40.30;98612.41;1866469;75;28596;-47
2023/01/08 04:00:30;;;;;;;1.45;0.93;;;;;;;24.01;40.29;98601.98;1870044;75;28125;-44
2023/01/08 04:03:19;;;;;;;1.40;1.10;;;;;;;24.03;40.27;98606.66;1868265;76;28111;-44
2023/01/08 04:06:07;;;;;;;1.22;0.90;;;;;;;24.03;40.26;98617.09;1876249;74;28185;-48
2023/01/08 04:08:56;;;;;;;2.62;1.17;;;;;;;24.04;40.25;98622.02;1867471;76;28141;-45
2023/01/08 04:11:44;;;;;;;0.87;0.87;;;;;;;24.07;40.20;98625.64;1857193;75;28115;-46
2023/01/08 04:14:32;;;;;;;0.90;0.90;;;;;;;24.09;40.21;98625.36;1851730;75;28092;-45
2023/01/08 04:17:20;;;;;;;0.90;0.90;;;;;;;24.12;40.16;98627.59;1868580;76;28248;-46
2023/01/08 04:20:09;;;;;;;0.95;0.93;;;;;;;24.12;40.17;98628.42;1864875;75;28505;-45
2023/01/08 04:22:58;;;;;;;1.60;1.00;;;;;;;24.15;40.14;98632.02;1868691;76;28117;-46
2023/01/08 04:25:46;;;;;;;1.25;1.00;;;;;;;24.17;40.09;98622.97;1856710;76;28110;-46
2023/01/08 04:28:36;;;;;;;1.35;0.85;;;;;;;24.19;40.13;98626.80;1863707;76;28229;-47
2023/01/08 04:31:24;;;;;;;1.00;1.00;;;;;;;24.20;40.09;98617.50;1851481;75;28128;-45
2023/01/08 04:34:12;;;;;;;1.37;0.90;;;;;;;24.20;40.09;98615.55;1870146;74;28144;-49
2023/01/08 04:37:02;;;;;;;0.90;0.90;;;;;;;24.22;40.08;98607.91;1869524;76;28105;-46
2023/01/08 04:39:50;;;;;;;1.25;0.82;;;;;;;24.26;40.04;98607.64;1865241;76;28141;-49
2023/01/08 04:42:38;;;;;;;3.20;0.80;;;;;;;24.26;40.05;98598.04;1869550;75;28120;-46
2023/01/08 04:45:27;;;;;;;1.15;0.80;;;;;;;24.29;40.02;98593.39;1870976;75;28154;-47
2023/01/08 04:48:15;;;;;;;1.63;0.93;;;;;;;24.33;39.96;98605.48;1842322;76;28665;-47
2023/01/08 04:51:05;;;;;;;0.80;0.80;;;;;;;24.34;39.95;98589.27;1859767;76;32018;-46
2023/01/08 04:53:53;;;;;;;1.07;0.97;;;;;;;24.36;39.94;98580.80;1868562;76;28212;-47
2023/01/08 04:56:42;;;;;;;0.88;0.88;;;;;;;24.35;39.94;98579.12;1849156;76;28215;-46
2023/01/08 04:59:30;;;;;;;0.93;0.80;;;;;;;24.41;39.88;98576.13;1868264;76;28128;-45
2023/01/08 05:02:19;;;;;;;0.80;0.80;;;;;;;24.44;39.83;98587.95;1868951;75;28135;-44
2023/01/08 05:05:08;;;;;;;1.30;0.88;;;;;;;24.43;39.85;98565.73;1868932;76;28045;-46
2023/01/08 05:07:56;;;;;;;1.12;0.90;;;;;;;24.46;39.82;98572.04;1856329;76;28166;-49
2023/01/08 05:10:45;;;;;;;0.80;0.80;;;;;;;24.45;39.82;98575.89;1845007;76;28158;-47
2023/01/08 05:13:33;;;;;;;1.17;0.78;;;;;;;24.46;39.85;98579.44;1867213;76;28178;-45
2023/01/08 05:16:22;;;;;;;0.93;0.93;;;;;;;24.45;39.86;98563.54;1868858;76;28061;-45
2023/01/08 05:19:10;;;;;;;1.50;0.80;;;;;;;24.47;39.85;98565.47;1851713;74;28103;-46
2023/01/08 05:21:58;;;;;;;0.85;0.75;;;;;;;24.49;39.80;98539.11;1863788;76;28118;-49
2023/01/08 05:24:47;;;;;;;0.82;0.80;;;;;;;24.50;39.81;98534.73;1868739;76;28075;-45
2023/01/08 05:27:35;;;;;;;1.00;0.90;;;;;;;24.52;39.80;98538.58;1860009;76;28327;-47
2023/01/08 05:30:23;;;;;;;2.60;0.80;;;;;;;24.52;39.77;98546.81;1867793;76;28149;-45
2023/01/08 05:33:12;;;;;;;2.27;0.80;;;;;;;24.54;39.74;98560.55;1865621;76;28646;-53
2023/01/08 05:36:00;;;;;;;0.82;0.82;;;;;;;24.57;39.78;98566.05;1869412;74;28116;-47
2023/01/08 05:38:48;;;;;;;0.82;0.82;;;;;;;24.57;39.75;98547.66;1858823;76;28152;-48
2023/01/08 05:41:37;;;;;;;1.45;0.70;;;;;;;24.57;39.74;98558.64;1862267;76;28226;-47
2023/01/08 05:44:25;;;;;;;2.02;0.82;;;;;;;24.61;39.75;98547.93;1856251;76;28166;-49
2023/01/08 05:47:13;;;;;;;0.70;0.70;;;;;;;24.62;39.67;98554.52;1840250;76;28176;-47
2023/01/08 05:50:02;;;;;;;1.80;0.60;;;;;;;24.66;39.66;98565.26;1844884;76;28148;-46
2023/01/08 05:52:50;;;;;;;0.90;0.73;;;;;;;24.68;39.63;98560.31;1852227;77;28141;-47
2023/01/08 05:55:39;;;;;;;0.82;0.82;;;;;;;24.69;39.55;98571.56;1842665;77;28044;-47
2023/01/08 05:58:27;;;;;;;2.62;0.90;;;;;;;24.69;39.61;98566.64;1868921;76;28166;-46
2023/01/08 06:01:16;;;;;;;0.62;0.62;;;;;;;24.72;39.59;98574.31;1871193;74;28146;-45
2023/01/08 06:04:04;;;;;;;1.07;1.00;;;;;;;24.72;39.58;98576.52;1851172;75;28179;-46
2023/01/08 06:06:53;;;;;;;1.00;0.90;;;;;;;24.71;39.57;98570.73;1869949;76;28081;-47
2023/01/08 06:09:41;;;;;;;0.80;0.80;;;;;;;24.72;39.60;98564.16;1849465;76;28088;-47
2023/01/08 06:12:29;;;;;;;1.40;0.80;;;;;;;24.74;39.53;98571.58;1843266;77;28057;-47
2023/01/08 06:15:18;;;;;;;1.30;0.73;;;;;;;24.79;39.49;98569.97;1870104;74;28207;-46
2023/01/08 06:18:07;;;;;;;1.02;0.80;;;;;;;24.77;39.50;98569.41;1838675;77;28713;-49
2023/01/08 06:20:55;;;;;;;0.90;0.90;;;;;;;24.80;39.52;98567.52;1866722;74;28150;-45
2023/01/08 06:23:43;;;;;;;1.22;0.80;;;;;;;24.81;39.53;98576.05;1865254;75;28099;-46
2023/01/08 06:26:32;;;;;;;0.88;0.88;;;;;;;24.82;39.49;98575.77;1852864;77;28070;-47
2023/01/08 06:29:20;;;;;;;1.17;0.80;;;;;;;24.84;39.51;98585.09;1858099;76;28084;-51
2023/01/08 06:32:08;;;;;;;0.80;0.80;;;;;;;24.85;39.49;98586.75;1843878;77;28218;-45
2023/01/08 06:34:56;;;;;;;0.63;0.63;;;;;;;24.89;39.47;98593.35;1872525;74;28138;-46
2023/01/08 06:37:45;;;;;;;1.00;0.88;;;;;;;25.00;39.29;98590.89;1847257;76;27988;-47
2023/01/08 06:40:33;;;;;;;1.25;1.20;;;;;;;25.09;39.20;98601.63;1838571;77;28267;-47
2023/01/08 06:43:22;;;;;;;1.72;0.90;;;;;;;25.14;39.13;98609.88;1856899;77;28089;-45
2023/01/08 06:46:10;;;;;;;1.00;1.00;;;;;;;25.16;39.12;98603.02;1876152;74;28657;-49
2023/01/08 06:48:58;;;;;;;1.00;0.68;;;;;;;25.20;39.02;98604.69;1884225;75;28086;-46
2023/01/08 06:51:47;;;;;;;1.67;0.93;;;;;;;25.22;38.95;98607.98;1872859;75;28103;-48
2023/01/08 06:54:35;;;;;;;1.03;0.77;;;;;;;25.21;38.87;98631.89;1884756;75;28027;-45
2023/01/08 06:57:24;;;;;;;3.25;1.10;;;;;;;25.18;38.88;98638.49;1884374;75;27995;-46
2023/01/08 07:00:13;;;;;;;0.70;0.70;;;;;;;25.22;38.88;98636.84;1884061;75;28212;-45
2023/01/08 07:03:02;;;;;;;1.12;0.80;;;;;;;25.21;38.89;98644.80;1872065;75;28098;-46
2023/01/08 07:05:50;;;;;;;1.02;1.00;;;;;;;25.22;38.85;98638.22;1871460;75;28117;-46
2023/01/08 07:08:38;;;;;;;0.98;0.90;;;;;;;25.22;38.83;98626.68;1875455;75;28078;-47
2023/01/08 07:11:27;;;;;;;0.85;0.82;;;;;;;25.22;38.84;98634.92;1880706;75;28239;-46
2023/01/08 07:14:15;;;;;;;0.68;0.65;;;;;;;25.24;38.81;98664.88;1883279;74;28064;-47
2023/01/08 07:17:03;;;;;;;2.17;0.60;;;;;;;25.22;38.81;98662.95;1878540;75;28158;-45
2023/01/08 07:19:52;;;;;;;0.70;0.70;;;;;;;25.23;38.85;98656.34;1884032;75;28092;-48
2023/01/08 07:22:40;;;;;;;2.05;0.90;;;;;;;25.22;38.82;98639.59;1873995;75;28096;-46
2023/01/08 07:25:29;;;;;;;1.00;0.80;;;;;;;25.21;38.83;98659.91;1874745;75;28246;-46
2023/01/08 07:28:17;;;;;;;0.70;0.70;;;;;;;25.22;38.80;98671.20;1884158;75;28068;-47
2023/01/08 07:31:07;;;;;;;0.85;0.80;;;;;;;25.21;38.87;98668.16;1875595;75;28094;-49
2023/01/08 07:33:55;;;;;;;1.00;0.70;;;;;;;25.20;38.86;98663.23;1872383;75;28113;-45
2023/01/08 07:36:44;;;;;;;1.95;0.90;;;;;;;25.21;38.91;98686.03;1881117;75;28132;-47
2023/01/08 07:39:33;;;;;;;1.30;1.20;;;;;;;25.17;38.93;98693.17;1882867;75;29273;-49
2023/01/08 07:42:21;;;;;;;0.80;0.80;;;;;;;25.18;38.90;98706.63;1884360;75;28143;-50
2023/01/08 07:45:10;;;;;;;0.80;0.80;;;;;;;25.20;38.92;98706.38;1886372;74;28664;-45
2023/01/08 07:47:59;;;;;;;1.50;0.72;;;;;;;25.18;38.95;98690.72;1880895;75;28158;-48
2023/01/08 07:50:47;;;;;;;1.00;0.90;;;;;;;25.19;38.87;98686.85;1885725;74;28206;-46
2023/01/08 07:53:37;;;;;;;0.78;0.60;;;;;;;25.21;38.85;98698.40;1874851;75;28177;-47
2023/01/08 07:56:25;;;;;;;0.98;0.80;;;;;;;25.19;38.85;98704.72;1869419;75;28055;-45
2023/01/08 07:59:14;;;;;;;0.67;0.67;;;;;;;25.19;38.85;98711.05;1875647;74;28150;-44
2023/01/08 08:02:02;;;;;;;1.10;0.90;;;;;;;25.17;38.89;98715.99;1884043;75;28213;-49
2023/01/08 08:04:50;;;;;;;1.27;0.85;;;;;;;25.16;38.91;98707.45;1892306;74;28034;-45
2023/01/08 08:07:39;;;;;;;1.10;0.80;;;;;;;25.15;38.92;98708.57;1882669;75;28128;-45
2023/01/08 08:10:28;;;;;;;0.75;0.70;;;;;;;25.17;38.91;98705.54;1891250;75;38429;-45
2023/01/08 08:13:16;;;;;;;1.97;0.70;;;;;;;25.15;38.86;98711.32;1875943;75;28107;-46
2023/01/08 08:16:05;;;;;;;1.02;0.88;;;;;;;25.15;38.90;98720.94;1867209;74;28318;-47
2023/01/08 08:18:54;;;;;;;2.35;0.70;;;;;;;25.14;38.87;98708.28;1888460;75;28082;-47
2023/01/08 08:21:42;;;;;;;1.10;0.63;;;;;;;25.18;38.84;98697.59;1882880;75;28101;-50
2023/01/08 08:24:31;;;;;;;0.80;0.72;;;;;;;25.14;38.89;98695.08;1879733;75;28286;-45
2023/01/08 08:27:19;;;;;;;0.55;0.55;;;;;;;25.16;38.90;98703.88;1865082;75;28046;-48
2023/01/08 08:30:09;;;;;;;0.60;0.60;;;;;;;25.16;38.86;98695.63;1878447;75;28214;-45
2023/01/08 08:32:59;;;;;;;1.00;1.00;;;;;;;25.16;38.82;98695.63;1872236;75;28174;-46
2023/01/08 08:35:51;;;;;;;0.70;0.70;;;;;;;25.16;38.85;98699.75;1884386;74;28085;-46
2023/01/08 08:38:40;;;;;;;1.00;0.70;;;;;;;25.16;38.83;98688.76;1876928;75;28031;-46
2023/01/08 08:41:28;;;;;;;0.62;0.62;;;;;;;25.15;38.87;98703.08;1878718;75;28092;-47
2023/01/08 08:44:17;;;;;;;0.65;0.65;;;;;;;25.15;38.88;98711.32;1884185;75;28055;-48
2023/01/08 08:47:10;;;;;;;0.73;0.73;;;;;;;25.15;38.92;98711.86;1876039;75;28269;-48
2023/01/08 08:49:59;;;;;;;0.78;0.70;;;;;;;25.15;38.98;98708.57;1884978;74;28064;-47
2023/01/08 08:52:48;;;;;;;2.12;0.88;;;;;;;25.13;39.03;98694.81;1882479;75;28117;-47
2023/01/08 08:55:36;;;;;;;0.68;0.68;;;;;;;25.14;39.01;98700.03;1881182;75;28616;-48
2023/01/08 08:58:24;;;;;;;0.50;0.50;;;;;;;25.14;39.02;98684.91;1884086;75;31062;-44
2023/01/08 09:01:13;;;;;;;0.70;0.70;;;;;;;25.15;39.00;98676.13;1882981;75;28178;-48
2023/01/08 09:04:01;;;;;;;0.88;0.88;;;;;;;25.13;38.97;98664.59;1876197;75;28067;-45
2023/01/08 09:06:49;;;;;;;0.60;0.60;;;;;;;25.14;39.03;98668.97;1858503;75;28173;-45
2023/01/08 09:09:37;;;;;;;0.98;0.72;;;;;;;25.15;38.99;98673.38;1884384;74;28084;-45
2023/01/08 09:12:26;;;;;;;1.70;0.80;;;;;;;25.15;38.92;98672.01;1867575;75;28144;-46
2023/01/08 09:15:15;;;;;;;2.42;0.90;;;;;;;25.15;38.88;98676.96;1877586;74;28156;-49
2023/01/08 09:18:04;;;;;;;2.30;0.95;;;;;;;25.15;38.91;98676.13;1866197;75;28712;-47
2023/01/08 09:20:53;;;;;;;1.35;1.12;;;;;;;25.15;38.56;98671.47;1876762;74;28208;-49
2023/01/08 09:23:41;;;;;;;1.10;1.00;;;;;;;25.05;37.12;98660.44;1866559;75;28214;-48
2023/01/08 09:26:30;;;;;;;0.90;0.90;;;;;;;25.06;37.29;98669.52;1884214;75;28132;-47
2023/01/08 09:29:19;;;;;;;0.88;0.88;;;;;;;25.07;37.21;98675.27;1883709;74;28253;-48
2023/01/08 09:32:08;;;;;;;3.65;1.50;;;;;;;25.08;37.31;98660.45;1863899;75;28257;-50
2023/01/08 09:34:56;;;;;;;2.80;1.55;;;;;;;25.05;38.31;98643.95;1869847;75;28169;-49
2023/01/08 09:37:47;;;;;;;2.40;1.55;;;;;;;25.03;38.46;98643.94;1881340;75;28113;-49
2023/01/08 09:40:44;;;;;;;3.47;1.30;;;;;;;25.00;38.58;98647.22;1884167;75;28171;-51
2023/01/08 09:43:35;;;;;;;2.60;1.40;;;;;;;25.00;38.60;98656.84;1874069;75;28197;-48
2023/01/08 09:46:27;;;;;;;1.60;1.40;;;;;;;25.01;38.63;98655.75;1866424;75;28120;-51
2023/01/08 09:49:18;;;;;;;2.35;1.27;;;;;;;25.00;38.55;98646.68;1884267;75;28060;-52
2023/01/08 09:52:08;;;;;;;5.20;1.40;;;;;;;25.00;38.51;98644.47;1877440;75;28147;-46
2023/01/08 09:54:56;;;;;;;2.95;1.47;;;;;;;25.00;38.47;98642.55;1884485;74;28114;-50
2023/01/08 09:57:46;;;;;;;2.40;1.20;;;;;;;25.01;38.38;98642.84;1866257;75;28091;-49
2023/01/08 10:00:35;;;;;;;1.87;1.40;;;;;;;25.04;38.34;98633.23;1877556;75;28161;-52
2023/01/08 10:03:26;;;;;;;2.95;1.32;;;;;;;24.96;37.46;98613.98;1883527;75;28173;-46
2023/01/08 10:06:16;;;;;;;1.35;1.22;;;;;;;24.99;37.19;98609.87;1884499;74;28154;-48
2023/01/08 10:09:04;;;;;;;3.17;1.37;;;;;;;24.98;36.71;98595.84;1885095;74;32084;-50
2023/01/08 10:11:55;;;;;;;1.30;1.20;;;;;;;25.00;36.84;98585.39;1872199;75;28168;-46
2023/01/08 10:14:48;;;;;;;2.60;1.40;;;;;;;25.03;36.88;98571.95;1879195;74;28243;-46
2023/01/08 10:17:43;;;;;;;1.72;1.10;;;;;;;25.02;36.99;98562.05;1883049;75;28226;-50
2023/01/08 10:20:32;;;;;;;1.10;1.10;;;;;;;25.01;37.25;98548.05;1880439;75;28094;-48
2023/01/08 10:23:25;;;;;;;2.00;1.17;;;;;;;24.99;37.34;98543.92;1863056;75;28100;-47
2023/01/08 10:26:13;;;;;;;1.70;0.93;;;;;;;25.02;37.51;98554.38;1875690;75;28528;-47
2023/01/08 10:29:13;;;;;;;1.27;1.20;;;;;;;25.00;37.70;98583.48;1883888;75;28058;-48
2023/01/08 10:32:04;;;;;;;1.22;1.12;;;;;;;25.00;37.81;98567.53;1870657;75;28082;-52
2023/01/08 10:34:55;;;;;;;1.20;1.20;;;;;;;24.99;37.88;98556.29;1873487;75;28096;-47
2023/01/08 10:37:45;;;;;;;2.98;1.25;;;;;;;24.98;37.92;98572.48;1877067;75;28190;-53
2023/01/08 10:40:41;;;;;;;2.30;1.22;;;;;;;25.02;37.91;98572.23;1884249;75;28106;-45
2023/01/08 10:43:32;;;;;;;1.27;1.00;;;;;;;25.03;37.99;98569.75;1884136;75;28143;-48
2023/01/08 10:46:29;;;;;;;2.00;1.00;;;;;;;25.01;37.96;98559.59;1860412;74;28375;-51
2023/01/08 10:49:37;;;;;;;1.20;1.10;;;;;;;25.03;38.00;98554.64;1868121;74;28172;-47
2023/01/08 10:52:30;;;;;;;1.77;1.17;;;;;;;25.04;37.94;98549.43;1882638;75;28372;-54
2023/01/08 10:55:31;;;;;;;2.37;1.30;;;;;;;25.01;37.98;98569.20;1876761;75;28117;-47
2023/01/08 10:58:19;;;;;;;5.67;1.20;;;;;;;25.02;38.02;98568.12;1871088;75;28305;-48
2023/01/08 11:01:28;;;;;;;3.93;1.00;;;;;;;25.01;38.09;98547.22;1865955;75;28527;-49
2023/01/08 11:04:32;;;;;;;1.82;1.20;;;;;;;24.99;38.18;98539.27;1886448;75;28076;-51
2023/01/08 11:07:23;;;;;;;1.85;1.30;;;;;;;24.98;38.18;98539.52;1884177;75;28171;-48
2023/01/08 11:10:27;;;;;;;1.10;1.10;;;;;;;24.97;38.22;98534.56;1865470;75;28285;-46
2023/01/08 11:13:17;;;;;;;1.40;1.30;;;;;;;24.96;38.24;98528.81;1870780;75;28150;-44
2023/01/08 11:16:13;;;;;;;1.70;1.17;;;;;;;24.97;38.35;98525.52;1864573;74;28469;-48
2023/01/08 11:18:58;;;;;;;2.60;1.20;;;;;;;24.98;38.45;98523.03;1858122;75;28276;-47
2023/01/08 11:21:58;;;;;;;1.42;1.30;;;;;;;24.95;38.50;98512.61;1870373;75;28184;-48
2023/01/08 11:24:49;;;;;;;1.25;1.20;;;;;;;24.98;38.46;98511.50;1873618;74;28092;-46
2023/01/08 11:27:41;;;;;;;1.40;1.30;;;;;;;24.98;38.41;98514.78;1873447;75;28195;-44
2023/01/08 11:30:31;;;;;;;1.17;1.03;;;;;;;24.98;38.46;98507.92;1873117;74;28314;-49
2023/01/08 11:33:25;;;;;;;1.40;1.30;;;;;;;24.96;38.43;98508.20;1872427;75;28158;-48
2023/01/08 11:36:25;;;;;;;1.80;1.30;;;;;;;24.98;38.42;98509.30;1869685;74;28110;-49
2023/01/08 11:39:14;;;;;;;3.08;1.32;;;;;;;24.97;38.48;98493.34;1884162;75;28111;-47
2023/01/08 11:42:21;;;;;;;2.70;1.35;;;;;;;24.96;38.48;98490.89;1880445;75;28278;-49
2023/01/08 11:45:42;;;;;;;2.10;1.30;;;;;;;24.97;38.46;98476.06;1883107;75;39006;-47
2023/01/08 11:48:48;;;;;;;1.17;1.07;;;;;;;24.94;38.44;98475.23;1821254;77;27807;-49
2023/01/08 11:51:58;;;;;;;1.52;1.30;;;;;;;24.91;38.54;98476.59;1786952;77;28426;-50
2023/01/08 11:54:58;;;;;;;1.55;1.20;;;;;;;24.91;38.55;98453.79;1789852;78;28242;-50
2023/01/08 11:58:02;;;;;;;1.55;1.27;;;;;;;24.87;38.58;98465.06;1807380;78;30153;-46
2023/01/08 12:01:02;;;;;;;1.40;1.27;;;;;;;24.89;38.68;98457.36;1775338;78;28464;-53
2023/01/08 12:04:10;;;;;;;1.17;1.17;;;;;;;24.93;38.65;98443.34;1832800;77;28229;-49
2023/01/08 12:07:10;;;;;;;1.40;1.30;;;;;;;24.96;38.58;98431.81;1839299;77;28145;-53
2023/01/08 12:10:01;;;;;;;1.32;1.30;;;;;;;24.99;38.56;98436.77;1867613;76;28199;-49
2023/01/08 12:13:16;;;;;;;1.95;1.30;;;;;;;24.98;38.54;98444.73;1862457;76;28086;-48
2023/01/08 12:16:12;;;;;;;1.42;1.40;;;;;;;24.99;38.58;98439.52;1735550;82;28456;-50
2023/01/08 12:19:15;;;;;;;2.07;1.43;;;;;;;24.98;38.71;98441.98;1723743;82;28516;-55
2023/01/08 12:22:12;;;;;;;2.08;1.40;;;;;;;24.85;39.00;98433.75;1766882;80;28389;-47
2023/01/08 12:25:37;;;;;;;1.40;1.30;;;;;;;24.74;39.29;98427.39;1799522;78;28204;-49
2023/01/08 12:28:48;;;;;;;1.50;1.32;;;;;;;24.65;39.27;98408.44;1788463;79;28370;-48
2023/01/08 12:32:02;;;;;;;2.30;1.30;;;;;;;24.53;39.43;98406.50;1855819;76;28213;-54
2023/01/08 12:34:53;;;;;;;2.67;1.40;;;;;;;24.60;39.53;98408.44;1851646;75;28175;-50
2023/01/08 12:37:50;;;;;;;1.63;1.40;;;;;;;24.74;39.39;98377.13;1852184;77;28209;-46
2023/01/08 12:40:41;;;;;;;1.40;1.30;;;;;;;24.87;39.17;98366.17;1849697;77;28093;-48
2023/01/08 12:43:33;;;;;;;1.75;1.57;;;;;;;24.94;38.97;98367.54;1867294;74;28057;-47
2023/01/08 12:46:24;;;;;;;2.27;2.08;;;;;;;25.01;38.90;98359.84;1846625;77;28153;-49
2023/01/08 12:49:15;;;;;;;1.50;1.40;;;;;;;25.09;38.73;98354.30;1855239;77;38523;-47
2023/01/08 12:52:09;;;;;;;1.50;1.40;;;;;;;25.13;38.66;98341.13;1874434;75;28153;-47
2023/01/08 12:55:00;;;;;;;2.40;1.30;;;;;;;25.16;38.60;98331.48;1884852;74;28095;-48
2023/01/08 12:58:17;;;;;;;1.55;1.45;;;;;;;25.18;38.55;98329.30;1877220;75;30310;-47
2023/01/08 13:01:24;;;;;;;1.65;1.55;;;;;;;25.22;38.52;98323.51;1875336;75;28226;-47
2023/01/08 13:04:13;;;;;;;1.40;1.30;;;;;;;25.22;38.51;98324.88;1849616;75;28650;-45
2023/01/08 13:07:04;;;;;;;1.62;1.37;;;;;;;25.25;38.41;98314.71;1811479;77;30079;-47
2023/01/08 13:09:59;;;;;;;1.40;1.30;;;;;;;25.27;38.42;98313.88;1820157;78;28301;-47
2023/01/08 13:12:50;;;;;;;1.55;1.45;;;;;;;25.31;38.30;98313.58;1804194;78;28308;-46
2023/01/08 13:15:39;;;;;;;1.60;1.50;;;;;;;25.30;38.24;98299.00;1804076;78;28345;-47
2023/01/08 13:18:27;;;;;;;1.40;1.30;;;;;;;25.28;38.22;98301.76;1837789;77;28118;-45
2023/01/08 13:21:15;;;;;;;1.47;1.37;;;;;;;25.29;38.26;98285.55;1839959;77;28116;-47
2023/01/08 13:24:30;;;;;;;1.62;1.52;;;;;;;25.32;38.22;98272.63;1843083;77;28185;-45
2023/01/08 13:27:21;;;;;;;1.50;1.40;;;;;;;25.34;38.18;98267.09;1838289;77;28233;-45
2023/01/08 13:30:32;;;;;;;1.55;1.30;;;;;;;25.33;38.18;98267.38;1802465;78;28224;-43